ADDS TAF Board (Experimental) INFO Settings
IDs: Format: Expanded Condensed

KFLL - Ft Lauderdale-Hollyw, FL, US

Issued at 2333 UTC 31 Aug 2015
Updated at: 2347 UTC 31 Aug 2015
Time2253Z 01/00Z 01/01Z 01/02Z 01/03Z 01/04Z 01/05Z 01/06Z 01/07Z 01/08Z 01/09Z 01/10Z 01/11Z 01/12Z
Type OBS PRVL PRVL PRVL PRVL PRVL PRVL PRVL PRVL PRVL PRVL PRVL PRVL PRVL
VIS 10 >6 >6 >6 >6 >6 >6 >6 >6 >6 >6 >6 >6 >6
CIG -- -- -- -- -- -- -- -- -- -- -- -- -- --
Cover SCT SCT SCT SCT SCT SCT SCT SCT SCT SCT SCT SCT SCT SCT
FltCat VFR VFR VFR VFR VFR VFR VFR VFR VFR VFR VFR VFR VFR VFR
WX -- -- -- -- -- -- -- -- -- -- -- -- -- --
WDir 150 130 130 130 130 130 130 130 130 130 130 130 130 130
WSpd 8 5 5 5 5 5 5 5 5 5 5 5 5 5
WGst -- -- -- -- -- -- -- -- -- -- -- -- -- --
R10/28
XWnd -7 -3 -3 -3 -3 -3 -3 -3 -3 -3 -3 -3 -3 -3
HWnd 4 4 4 4 4 4 4 4 4 4 4 4 4 4

NOTE: TEMPO conditions in [brackets]. Keep in mind TEMPO conditions might be better (lower impact) than prevailing conditions.

Raw TAF
KFLL 312333Z 0100/0124 13005KT P6SM SCT030
  FM011500 13010KT P6SM SCT030 SCT250


Raw METAR
KFLL 312253Z 15008KT 10SM FEW029 SCT250 30/24 A3001 RMK AO2 SLP163 T03000239 $
KFLL 312153Z 17008KT 10SM FEW029 SCT250 31/24 A3001 RMK AO2 SLP161 T03060244 $
KFLL 312053Z 16011KT 10SM FEW029 FEW250 31/25 A3001 RMK AO2 SLP160 T03110250 56011 $

METAR Board
Radar Display
Forecast Discussion

TAF Board Legend

Potential Impact
Threat None Slight Moderate High
Visibility (sm) ≥5.1 5.1>X≥3 3>X≥1 <1
Ceiling (100 ft) ≥30.1 30.1>X≥10 10>X≥5 <5
Wind Speed (kt) <10 10≤X<20 20≤X<30 ≥30
Wind Gust (kt) <15 15≤X<25 25≤X<35 ≥35
Weather No Wx Reported VCTS,-TS,-FZRA,SN TS,FZRA +TS,+FZRA,+SN